Skip Navigation Links
Home and Info
Weather Forecast
Mountsorrel Weather
Climate Reports
Fun Stuff
Storm Chasing Pictures
Weather Tools
Me Only!
Stormchaser Mountsorrel Leicester current Weather StormChaser Mountsorrel Leicester current Weather


25 September 2016 Climate report for Mountsorrel.

 

Mountsorrel Weather Climate values are an adverage reading taken during the hour before the one displayed.

The bottom value is the Mean or Total of all the values during the day.


TimeAir TempGround TempDew PointRH%RainSun MinutesWind RunWind HiWind Dir BarometerWxWxTxt
Sep 25 2016 9:00PM 11.8 8.0 7.6 75 --- --- 0 5 SWWind direction 1016.4 Mostly Clouds Mostly Clouds
Sep 25 2016 8:00PM 12.6 8.3 7.7 72 --- --- 0 0 ---Wind direction 1016.1 Mostly Clouds Mostly Clouds
Sep 25 2016 7:00PM 14.3 10.7 7.7 64 --- 33 3 12 WWind direction 1015.3 Mostly Clouds Mostly Clouds
Sep 25 2016 6:00PM 13.4 8.9 7.9 69 --- --- 0 6 WSWWind direction 1015.9 Mostly Clouds Mostly Clouds
Sep 25 2016 5:00PM 15.3 13.0 8.0 61 --- 40 10 18 WSWWind direction 1014.3 Mostly Clouds Mostly Clouds
Sep 25 2016 4:00PM 16.1 14.4 8.8 61 0.2 33 17 18 WSWWind direction 1013.6 Overcast Light Rain Overcast Light Rain
Sep 25 2016 3:00PM 16.8 18.0 8.3 57 --- 62 18 18 WWind direction 1012.6 Mostly Clouds Mostly Clouds
Sep 25 2016 2:00PM 16.6 23.3 8.9 60 --- 33 12 17 WWind direction 1011.4 Mostly Clouds Mostly Clouds
Sep 25 2016 1:00PM 16.5 20.7 9.7 64 --- --- 13 17 WWind direction 1010.8 Mostly Clouds Mostly Clouds
Sep 25 2016 12:00PM 16.4 19.3 10.8 69 --- 41 15 18 WSWWind direction 1010.4 Mostly Clouds Mostly Clouds
Sep 25 2016 11:00AM 14.9 16.7 12.5 85 0.2 3 11 18 SWWind direction 1009.5 Overcast Light Rain Overcast Light Rain
Sep 25 2016 10:00AM 14.0 16.4 12.8 92 --- --- 7 12 SWWind direction 1008.8 Mostly Clouds Mostly Clouds
Sep 25 2016 9:00AM 13.5 13.7 11.7 88 --- --- 5 16 SSWWind direction 1008.2 Mostly Clouds Mostly Clouds
Sep 25 2016 8:00AM 13.4 12.7 11.3 86 --- --- 5 10 SWWind direction 1007.4 Mostly Clouds Mostly Clouds
Sep 25 2016 7:00AM 13.7 12.7 11.3 85 0.2 --- 0 7 SSEWind direction 1006.5 Overcast Light Rain Overcast Light Rain
Sep 25 2016 6:00AM 14.7 13.1 11.6 81 0.8 --- 3 6 WSWWind direction 1006.1 Overcast Light Rain Overcast Light Rain
Sep 25 2016 5:00AM 17.0 14.9 13.2 78 1.8 --- 12 16 WWind direction 1005.2 Overcast Rain Overcast Rain
Sep 25 2016 4:00AM 16.8 14.2 12.8 77 0.2 --- 10 18 SWind direction 1004.9 Overcast Light Rain Overcast Light Rain
Sep 25 2016 3:00AM 16.3 12.8 11.7 74 --- --- 9 12 SWind direction 1005.5 Mostly Clouds Mostly Clouds
Sep 25 2016 2:00AM 16.2 12.2 11.3 72 --- --- 9 18 SWind direction 1006.0 Mostly Clouds Mostly Clouds
Sep 25 2016 1:00AM 16.6 12.9 11.3 70 --- --- 9 13 SSEWind direction 1007.0 Mostly Clouds Mostly Clouds
Totals 15.1 14.1 10.3 73 3.4 04:05 168    1010.1   








The Mountsorrel Weather Station is located in Mountsorrel which is just South of Loughborough and just North of Leicester in Leicestershire.
It is maintained by Stormchaser Stuart Robinson whose passion is for all type of weather but especially the more severe types of weather such as Hurricanes, Typhoon and Tornadoes.